Huoshan, China
Current Conditions -  °F | °C
As of 1:00 PM on Thursday 23 Oct 2014 (Local Time) from ZSOF Reporting Station
Haze Haze  
Wind Chill: 73°   Ceiling: Unl
Heat Index: 73°   Visibility: 3mi
Dew Point: 55°   Wind: 7mph
Humidity: 53%   Direction: 160°SSE
Pressure: 30.06"   Gusts: NA
Location:  31.4°N, 116.33°E
Report Text: ZSOF 230500Z 16003MPS 110V210 5000 HZ NSC 23/13 Q1018 NOSIG
Loading
Personal Weather Stations






























Interactive Weather Map
Tropical Storm Tracking
New forecast layout! Learn more

10-Day Weather Forecast

Advertisements
Track Severe Weather on mobile